Airfield :
LOGIN :

Register | Disclaimer

   EN    FR    IT 

 










Legend :    VFR   Marginal VFR   IFR   Intensive IFR   Very Intensive IFR
Visi :
Ceiling :
>= 8 km
>= 3000ft
5 to 8 km
1000 to 3000 ft
1500m to 5 km
500 to 1000 ft
800 to 1500m
200 to 500 ft
< 800m
< 200 ft
Symbols :   Thunderstorms  Fog  Heavy snow  Heavy precipitations  Wind > 20 kt
SIGMETs :     Misc.  Thunderstorms  Icing  Turbulence  Mountain Waves  Volcanic Ashes






- Airport Elevation : 268 ft
- IATA code : BFS


EGAA - Belfast Aldergrove

CURRENT METAR :
  • 141120Z VRB02KT 9999 SCT024 11/03 Q1034

EXPIRED METARs :
  • 141050Z VRB02KT 9999 SCT024 10/02 Q1034
  • 141020Z 10004KT 350V150 9999 FEW025 10/04 Q1034
  • 140950Z 03003KT 340V100 9999 FEW025 10/04 Q1034
  • 140920Z 05004KT 020V100 9999 FEW019 09/04 Q1034

TAF TAF EGAA
Valid from the 14 at 12:00 until the 15 at 12:00 UTC


141057Z 1412/1512 VRB04KT 9999 SCT025
BECMG 1414/1417 10010KT
BECMG 1418/1421 VRB03KT
TEMPO 1422/1508 5000 BR MIFG
PROB30 1501/1507 0500 FG BKN000



MET'MAP, your aeronautical weather chart ! - Copyright ORBIFLY December 2007 - Disclaimer

ORBIFLY MET'MAP TEAM :

Programming & Development : Alexandra Zaïnal
Concept & original design : Baudouin d'Aumeries
Assistance for programming : Marc-Olivier Méhu
Technical & hardware support : Manuel Goepfert

Contact : metmap@orbifly.com




SOURCES & CREDITS :

   NOAA